Time;durP1;ratioP1;P1;durP2;ratioP2;P2;SDS_P1;SDS_P2;PMS_P1;PMS_P2;Temp;Humidity;BMP_temperature;BMP_pressure;BME280_temperature;BME280_humidity;BME280_pressure;Samples;Min_cycle;Max_cycle;Signal;HPM_P1;HPM_P2
2022/08/21 00:01:28;;;;;;;3.55;1.23;;;17.80;99.90;;;;;;5014517;28;20186;-89
2022/08/21 00:03:55;;;;;;;4.60;1.17;;;17.80;99.90;;;;;;5014713;28;20189;-89
2022/08/21 00:06:21;;;;;;;4.32;0.95;;;17.70;99.90;;;;;;5014371;28;20226;-88
2022/08/21 00:08:48;;;;;;;5.95;1.08;;;17.50;99.90;;;;;;5014432;28;20196;-89
2022/08/21 00:11:14;;;;;;;3.30;1.05;;;17.50;99.90;;;;;;4989658;28;20200;-89
2022/08/21 00:13:41;;;;;;;2.75;0.90;;;17.50;99.90;;;;;;4979707;28;20174;-88
2022/08/21 00:16:08;;;;;;;2.80;1.00;;;17.50;99.90;;;;;;4994334;28;20186;-89
2022/08/21 00:18:34;;;;;;;5.40;1.20;;;17.40;99.90;;;;;;4995077;28;20171;-89
2022/08/21 00:21:01;;;;;;;6.05;1.23;;;17.40;99.90;;;;;;4997608;28;20237;-89
2022/08/21 00:23:26;;;;;;;5.05;1.42;;;17.40;99.90;;;;;;5014592;28;20175;-89
2022/08/21 00:25:52;;;;;;;3.83;1.13;;;17.30;99.90;;;;;;5014367;28;20185;-89
2022/08/21 00:28:18;;;;;;;2.20;1.15;;;17.30;99.90;;;;;;5014615;28;20194;-88
2022/08/21 00:30:45;;;;;;;2.30;1.10;;;17.20;99.90;;;;;;5014162;28;20213;-89
2022/08/21 00:33:11;;;;;;;4.53;1.20;;;17.20;99.90;;;;;;5014513;28;20216;-89
2022/08/21 00:35:40;;;;;;;2.30;1.00;;;17.20;99.90;;;;;;5014546;28;20210;-88
2022/08/21 00:38:08;;;;;;;2.50;1.15;;;17.10;99.90;;;;;;5031659;28;20645;-89
2022/08/21 00:40:57;;;;;;;3.25;1.05;;;17.10;99.90;;;;;;5014172;28;20217;-89
2022/08/21 00:43:29;;;;;;;1.55;0.90;;;17.10;99.90;;;;;;5014173;28;20185;-89
2022/08/21 00:45:56;;;;;;;4.53;1.13;;;17.10;99.90;;;;;;5014527;28;20186;-89
2022/08/21 00:48:23;;;;;;;4.10;1.30;;;17.10;99.90;;;;;;5014028;28;20174;-89
2022/08/21 00:50:55;;;;;;;4.18;1.20;;;17.10;99.90;;;;;;5012466;28;20213;-89
2022/08/21 00:53:24;;;;;;;2.97;1.15;;;17.00;99.90;;;;;;4994273;28;20199;-89
2022/08/21 00:55:51;;;;;;;5.20;1.25;;;17.00;99.90;;;;;;4994469;28;20266;-90
2022/08/21 00:58:18;;;;;;;4.40;1.20;;;17.00;99.90;;;;;;4994519;28;20282;-89
2022/08/21 01:00:46;;;;;;;5.15;0.95;;;16.90;99.90;;;;;;4994402;28;20229;-90
2022/08/21 01:03:15;;;;;;;4.25;1.58;;;16.80;99.90;;;;;;4994293;28;20519;-90
2022/08/21 01:05:42;;;;;;;4.63;1.13;;;16.80;99.90;;;;;;4994316;28;20233;-89
2022/08/21 01:08:09;;;;;;;4.65;1.15;;;16.80;99.90;;;;;;4991044;28;20628;-88
2022/08/21 01:10:36;;;;;;;8.70;1.27;;;16.70;99.90;;;;;;4990831;28;20203;-89
2022/08/21 01:13:06;;;;;;;3.30;1.08;;;16.70;99.90;;;;;;4990803;28;20180;-88
2022/08/21 01:15:35;;;;;;;4.07;1.30;;;16.70;99.90;;;;;;4991234;28;20246;-89
2022/08/21 01:18:04;;;;;;;5.40;1.30;;;16.60;99.90;;;;;;5363358;23;20258;-89
2022/08/21 01:20:31;;;;;;;3.53;1.08;;;16.50;99.90;;;;;;4975175;28;20213;-91
2022/08/21 01:22:57;;;;;;;5.25;1.35;;;16.40;99.90;;;;;;4991780;28;20645;-91
2022/08/21 01:25:23;;;;;;;3.15;1.33;;;16.40;99.90;;;;;;4994618;28;20184;-90
2022/08/21 01:27:49;;;;;;;2.70;1.17;;;16.40;99.90;;;;;;4993325;28;20678;-90
2022/08/21 01:30:24;;;;;;;2.45;1.08;;;16.40;99.90;;;;;;4993483;28;20187;-89
2022/08/21 01:32:51;;;;;;;4.63;1.25;;;16.30;99.90;;;;;;4994023;28;20179;-90
2022/08/21 01:35:18;;;;;;;3.05;1.08;;;16.20;99.90;;;;;;4997597;28;20183;-89
2022/08/21 01:37:45;;;;;;;3.72;1.50;;;16.20;99.90;;;;;;4997262;28;20183;-90
2022/08/21 01:40:15;;;;;;;3.30;1.20;;;16.20;99.90;;;;;;4997134;28;20242;-89
2022/08/21 01:42:42;;;;;;;4.07;1.30;;;16.20;99.90;;;;;;4997244;28;20259;-89
2022/08/21 01:45:09;;;;;;;3.08;1.30;;;16.30;99.90;;;;;;4996958;28;20184;-91
2022/08/21 01:47:35;;;;;;;7.43;1.38;;;16.20;99.90;;;;;;4997453;28;20180;-90
2022/08/21 01:50:05;;;;;;;3.60;1.40;;;16.10;99.90;;;;;;4997027;28;20270;-90
2022/08/21 01:52:31;;;;;;;3.15;1.20;;;15.90;99.90;;;;;;4982019;28;20184;-91
2022/08/21 01:54:56;;;;;;;2.53;1.33;;;15.90;99.90;;;;;;4977595;28;20513;-90
2022/08/21 01:57:23;;;;;;;3.70;1.05;;;16.00;99.90;;;;;;4977566;28;20191;-89
2022/08/21 01:59:50;;;;;;;3.33;1.27;;;15.80;99.90;;;;;;4977731;28;20208;-90
2022/08/21 02:02:16;;;;;;;7.43;1.50;;;15.90;99.90;;;;;;4977597;28;20616;-89
2022/08/21 02:04:41;;;;;;;3.72;1.15;;;15.90;99.90;;;;;;4977326;28;20186;-89
2022/08/21 02:07:07;;;;;;;6.38;1.20;;;15.80;99.90;;;;;;4977083;28;20184;-91
2022/08/21 02:09:35;;;;;;;3.60;1.00;;;15.70;99.90;;;;;;4977418;28;20189;-89
2022/08/21 02:12:01;;;;;;;4.53;1.25;;;15.70;99.90;;;;;;4977327;28;20203;-90
2022/08/21 02:14:26;;;;;;;2.63;1.20;;;15.70;99.90;;;;;;4977472;28;20599;-91
2022/08/21 02:16:52;;;;;;;5.07;1.38;;;15.50;99.90;;;;;;4977515;28;20176;-90
2022/08/21 02:19:18;;;;;;;3.75;1.10;;;15.40;99.90;;;;;;4976867;28;20232;-90
2022/08/21 02:21:44;;;;;;;3.67;1.30;;;15.40;99.90;;;;;;4977351;28;20185;-90
2022/08/21 02:24:12;;;;;;;2.40;1.10;;;15.40;99.90;;;;;;4976978;28;20181;-88
2022/08/21 02:26:37;;;;;;;3.08;1.30;;;15.40;99.90;;;;;;4977051;28;20177;-90
2022/08/21 02:29:06;;;;;;;2.40;1.15;;;15.30;99.90;;;;;;4976876;28;20228;-91
2022/08/21 02:31:33;;;;;;;3.85;1.45;;;15.30;99.90;;;;;;4976975;28;20204;-91
2022/08/21 02:33:59;;;;;;;5.18;1.30;;;15.30;99.90;;;;;;4976824;28;20173;-90
2022/08/21 02:36:25;;;;;;;3.00;1.00;;;15.30;99.90;;;;;;4976922;28;20181;-90
2022/08/21 02:38:51;;;;;;;3.53;1.30;;;15.20;99.90;;;;;;4976514;28;20211;-90
2022/08/21 02:41:21;;;;;;;3.63;1.10;;;15.40;99.90;;;;;;4976680;28;20276;-90
2022/08/21 02:43:47;;;;;;;1.65;0.95;;;15.30;99.90;;;;;;4976728;28;20228;-90
2022/08/21 02:46:15;;;;;;;4.22;1.27;;;15.20;99.90;;;;;;4979025;28;20176;-90
2022/08/21 02:48:41;;;;;;;1.60;0.98;;;15.10;99.90;;;;;;4996267;28;20186;-91
2022/08/21 02:51:14;;;;;;;3.40;1.40;;;15.10;99.90;;;;;;4993862;28;20244;-91
2022/08/21 02:53:41;;;;;;;4.28;1.00;;;15.20;99.90;;;;;;4976513;28;20169;-90
2022/08/21 02:56:10;;;;;;;4.40;1.20;;;15.30;99.90;;;;;;4976791;28;20176;-92
2022/08/21 02:58:40;;;;;;;2.47;1.00;;;15.20;99.90;;;;;;4976612;28;20529;-91
2022/08/21 03:01:09;;;;;;;3.38;1.40;;;15.20;99.90;;;;;;4976462;28;20547;-90
2022/08/21 03:03:36;;;;;;;3.03;1.05;;;15.10;99.90;;;;;;4976547;28;20228;-91
2022/08/21 03:06:03;;;;;;;3.70;1.30;;;15.00;99.90;;;;;;4976598;28;20185;-91
2022/08/21 03:08:29;;;;;;;5.63;1.15;;;15.00;99.90;;;;;;4977351;28;20232;-92
2022/08/21 03:10:56;;;;;;;2.85;1.10;;;14.90;99.90;;;;;;4976431;28;20181;-89
2022/08/21 03:13:22;;;;;;;3.75;1.20;;;14.80;99.90;;;;;;4976398;28;20216;-89
2022/08/21 03:15:49;;;;;;;3.80;1.10;;;14.80;99.90;;;;;;4976309;28;20200;-89
2022/08/21 03:18:15;;;;;;;1.63;1.02;;;14.80;99.90;;;;;;4976115;28;20271;-89
2022/08/21 03:20:44;;;;;;;5.82;1.48;;;14.80;99.90;;;;;;4976155;28;20211;-90
2022/08/21 03:23:11;;;;;;;7.13;1.25;;;14.70;99.90;;;;;;4975978;28;20177;-89
2022/08/21 03:25:38;;;;;;;2.47;1.38;;;14.70;99.90;;;;;;4976433;28;20234;-90
2022/08/21 03:28:05;;;;;;;2.90;1.17;;;14.70;99.90;;;;;;4977409;28;20611;-90
2022/08/21 03:30:43;;;;;;;4.18;1.10;;;14.70;99.90;;;;;;4975959;28;20519;-89
2022/08/21 03:33:10;;;;;;;3.75;1.00;;;14.80;99.90;;;;;;4976164;28;20206;-91
2022/08/21 03:35:35;;;;;;;2.33;1.10;;;14.70;99.90;;;;;;4975950;28;20180;-90
2022/08/21 03:38:01;;;;;;;3.03;1.00;;;14.60;99.90;;;;;;4975653;28;20183;-90
2022/08/21 03:40:27;;;;;;;3.42;1.10;;;14.50;99.90;;;;;;4975823;28;20212;-90
2022/08/21 03:42:53;;;;;;;6.45;1.25;;;14.50;99.90;;;;;;4975968;28;20271;-90
2022/08/21 03:45:20;;;;;;;5.95;1.17;;;14.40;99.90;;;;;;4975675;28;20639;-90
2022/08/21 03:48:01;;;;;;;3.58;0.98;;;14.30;99.90;;;;;;4975730;28;20187;-90
2022/08/21 03:50:32;;;;;;;3.28;1.25;;;14.40;99.90;;;;;;4975759;28;20177;-89
2022/08/21 03:52:59;;;;;;;1.25;0.95;;;14.30;99.90;;;;;;4989603;28;20183;-90
2022/08/21 03:55:26;;;;;;;2.92;1.30;;;14.30;99.90;;;;;;5014752;28;20183;-90
2022/08/21 03:57:53;;;;;;;3.33;1.30;;;14.30;99.90;;;;;;5015524;28;20202;-89
2022/08/21 04:00:20;;;;;;;2.75;1.00;;;14.40;99.90;;;;;;5014417;28;20217;-88
2022/08/21 04:02:46;;;;;;;2.63;1.08;;;14.50;99.90;;;;;;5014662;28;20209;-90
2022/08/21 04:05:14;;;;;;;3.50;0.95;;;14.40;99.90;;;;;;5014839;28;20183;-89
2022/08/21 04:07:40;;;;;;;2.58;1.10;;;14.40;99.90;;;;;;5014264;28;20229;-89
2022/08/21 04:10:06;;;;;;;3.58;1.20;;;14.50;99.90;;;;;;5014273;28;20555;-90
2022/08/21 04:12:32;;;;;;;1.77;1.10;;;14.50;99.90;;;;;;5014327;28;20641;-91
2022/08/21 04:14:58;;;;;;;5.22;1.60;;;14.50;99.90;;;;;;5014408;28;20250;-90
2022/08/21 04:17:24;;;;;;;3.92;1.30;;;14.40;99.90;;;;;;5014226;28;20207;-90
2022/08/21 04:19:49;;;;;;;2.88;1.08;;;14.30;99.90;;;;;;5013557;28;20234;-91
2022/08/21 04:22:16;;;;;;;2.83;1.38;;;14.30;99.90;;;;;;5014138;28;20626;-91
2022/08/21 04:24:42;;;;;;;4.95;1.30;;;14.20;99.90;;;;;;5014424;28;20168;-91
2022/08/21 04:27:08;;;;;;;3.90;1.27;;;14.20;99.90;;;;;;5014193;28;20229;-91
2022/08/21 04:29:33;;;;;;;3.20;1.10;;;14.10;99.90;;;;;;5014292;28;20175;-90
2022/08/21 04:32:00;;;;;;;2.60;1.00;;;14.10;99.90;;;;;;5014360;28;20179;-91
2022/08/21 04:34:26;;;;;;;3.50;1.40;;;14.10;99.90;;;;;;5014239;28;20175;-90
2022/08/21 04:36:51;;;;;;;3.58;1.10;;;14.20;99.90;;;;;;5015409;28;20602;-90
2022/08/21 04:39:17;;;;;;;3.80;1.20;;;14.20;99.90;;;;;;5014090;28;20589;-90
2022/08/21 04:41:46;;;;;;;3.95;1.40;;;14.20;99.90;;;;;;5014163;28;20201;-91
2022/08/21 04:44:12;;;;;;;2.75;1.10;;;14.20;99.90;;;;;;5014293;28;20203;-92
2022/08/21 04:46:37;;;;;;;2.55;1.00;;;14.10;99.90;;;;;;5015431;28;20640;-90
2022/08/21 04:49:03;;;;;;;1.98;1.00;;;14.10;99.90;;;;;;5014117;28;20614;-91
2022/08/21 04:51:37;;;;;;;2.58;1.30;;;14.20;99.90;;;;;;5008567;28;20211;-91
2022/08/21 04:54:16;;;;;;;3.47;1.15;;;14.10;99.90;;;;;;4994287;28;20246;-91
2022/08/21 04:56:46;;;;;;;3.03;1.13;;;14.20;99.90;;;;;;4994501;28;20179;-90
2022/08/21 04:59:36;;;;;;;3.50;1.20;;;14.10;99.90;;;;;;4994292;28;20643;-90
2022/08/21 05:02:05;;;;;;;4.82;1.10;;;14.10;99.90;;;;;;4994487;28;20179;-92
2022/08/21 05:04:35;;;;;;;3.15;1.17;;;14.10;99.90;;;;;;4994469;28;20204;-91
2022/08/21 05:07:05;;;;;;;3.22;1.00;;;14.10;99.90;;;;;;4994610;28;20222;-91
2022/08/21 05:09:31;;;;;;;1.73;1.00;;;14.10;99.90;;;;;;4996832;28;20223;-92
2022/08/21 05:12:05;;;;;;;2.75;1.50;;;14.20;99.90;;;;;;4998279;28;20219;-91
2022/08/21 05:14:31;;;;;;;4.97;1.60;;;14.20;99.90;;;;;;4998220;28;20168;-91
2022/08/21 05:16:56;;;;;;;3.03;1.55;;;14.20;99.90;;;;;;4998075;28;20195;-91
2022/08/21 05:19:23;;;;;;;1.17;1.00;;;14.30;99.90;;;;;;4997916;28;20266;-91
2022/08/21 05:22:01;;;;;;;5.05;1.35;;;14.40;99.90;;;;;;4998242;28;20176;-92
2022/08/21 05:24:27;;;;;;;3.67;1.38;;;14.40;99.90;;;;;;4997809;28;20681;-92
2022/08/21 05:26:53;;;;;;;5.35;1.58;;;14.40;99.90;;;;;;4997835;28;20246;-90
2022/08/21 05:29:19;;;;;;;10.93;1.63;;;14.50;99.90;;;;;;4997701;28;20175;-90
2022/08/21 05:31:47;;;;;;;4.63;1.48;;;14.60;99.90;;;;;;4998952;28;20188;-90
2022/08/21 05:34:17;;;;;;;2.75;1.27;;;14.60;99.90;;;;;;4998806;28;20168;-90
2022/08/21 05:36:44;;;;;;;2.80;1.30;;;14.60;99.90;;;;;;4997635;28;20634;-90
2022/08/21 05:39:09;;;;;;;3.72;1.42;;;14.80;99.90;;;;;;4997217;28;20180;-91
2022/08/21 05:41:35;;;;;;;3.60;1.40;;;14.90;99.90;;;;;;4997704;28;20271;-91
2022/08/21 05:44:01;;;;;;;1.60;1.10;;;15.10;99.90;;;;;;4997368;28;20262;-90
2022/08/21 05:46:27;;;;;;;4.45;1.48;;;15.10;99.90;;;;;;4997513;28;20187;-90
2022/08/21 05:48:53;;;;;;;2.20;1.25;;;15.20;99.90;;;;;;4996735;28;20172;-91
2022/08/21 05:51:18;;;;;;;2.25;1.58;;;15.30;99.90;;;;;;4997209;28;20234;-92
2022/08/21 05:53:44;;;;;;;3.20;1.52;;;15.30;99.90;;;;;;4997066;28;20183;-92
2022/08/21 05:56:11;;;;;;;2.70;1.20;;;15.40;99.90;;;;;;4997225;28;20200;-92
2022/08/21 05:58:37;;;;;;;2.83;1.63;;;15.40;99.90;;;;;;4996305;28;20571;-91
2022/08/21 06:01:04;;;;;;;2.40;1.48;;;15.50;99.90;;;;;;4996423;28;20208;-92
2022/08/21 06:03:34;;;;;;;3.10;1.13;;;15.60;99.90;;;;;;4996403;28;20187;-90
2022/08/21 06:06:00;;;;;;;3.22;1.17;;;15.60;99.90;;;;;;4996597;28;20195;-90
2022/08/21 06:08:27;;;;;;;3.60;1.70;;;15.70;99.90;;;;;;4995767;28;20255;-91
2022/08/21 06:10:54;;;;;;;2.42;1.20;;;15.80;99.90;;;;;;4996943;28;20254;-89
2022/08/21 06:13:21;;;;;;;3.50;1.15;;;15.90;99.90;;;;;;4996050;28;20176;-91
2022/08/21 06:15:48;;;;;;;2.13;1.30;;;15.90;99.90;;;;;;4996118;28;20234;-91
2022/08/21 06:18:14;;;;;;;4.53;1.77;;;16.10;99.90;;;;;;4998679;28;20234;-89
2022/08/21 06:20:41;;;;;;;2.28;1.25;;;16.10;99.90;;;;;;4996426;28;20222;-91
2022/08/21 06:23:07;;;;;;;3.92;1.42;;;16.20;99.90;;;;;;4995939;28;20195;-92
2022/08/21 06:25:33;;;;;;;3.80;1.60;;;16.40;99.90;;;;;;4997157;28;20172;-90
2022/08/21 06:28:07;;;;;;;2.83;1.40;;;16.40;99.90;;;;;;5016732;28;20182;-94
2022/08/21 06:30:34;;;;;;;3.05;1.27;;;16.60;99.90;;;;;;5016926;28;20221;-92
2022/08/21 06:33:00;;;;;;;4.47;1.67;;;16.70;99.90;;;;;;5017351;28;20187;-93
2022/08/21 06:35:26;;;;;;;1.60;1.20;;;16.80;99.90;;;;;;5022295;28;20167;-94
2022/08/21 06:37:52;;;;;;;3.15;1.30;;;16.90;99.90;;;;;;5020562;28;20191;-96
2022/08/21 06:40:18;;;;;;;4.22;1.40;;;17.00;99.90;;;;;;5003264;28;20215;-96
2022/08/21 06:42:44;;;;;;;3.05;1.17;;;17.10;99.90;;;;;;4998282;28;20271;-92
2022/08/21 06:45:10;;;;;;;3.53;1.48;;;17.30;99.90;;;;;;4995463;28;20184;-92
2022/08/21 06:47:36;;;;;;;5.43;1.40;;;17.40;99.90;;;;;;4995519;28;20204;-94
2022/08/21 06:50:03;;;;;;;6.28;1.50;;;17.60;99.90;;;;;;4997427;28;20176;-95
2022/08/21 06:52:29;;;;;;;3.90;1.48;;;17.80;99.90;;;;;;4995581;28;20195;-94
2022/08/21 06:54:54;;;;;;;1.98;1.00;;;18.00;99.90;;;;;;4997001;28;20640;-95
2022/08/21 06:57:21;;;;;;;4.72;1.52;;;18.10;99.90;;;;;;4996808;28;20279;-94
2022/08/21 06:59:47;;;;;;;3.17;1.08;;;18.20;99.90;;;;;;4997156;28;20208;-96
2022/08/21 07:02:17;;;;;;;4.68;1.40;;;18.30;99.90;;;;;;4996361;28;20191;-94
2022/08/21 07:04:43;;;;;;;3.30;1.20;;;18.40;99.90;;;;;;4996191;28;20172;-93
2022/08/21 07:07:09;;;;;;;3.38;1.25;;;18.50;99.90;;;;;;4983353;28;20184;-91
2022/08/21 07:09:35;;;;;;;1.90;1.00;;;18.50;99.90;;;;;;4976515;28;20199;-93
2022/08/21 07:12:02;;;;;;;3.75;1.23;;;18.50;99.90;;;;;;4987452;28;20176;-91
2022/08/21 07:14:28;;;;;;;3.58;1.40;;;18.60;99.90;;;;;;4991773;28;20188;-92
2022/08/21 07:16:54;;;;;;;4.57;1.30;;;18.60;99.90;;;;;;4976044;28;20180;-94
2022/08/21 07:19:20;;;;;;;2.33;1.10;;;18.70;99.90;;;;;;4996956;28;20726;-95
2022/08/21 07:21:46;;;;;;;4.75;1.55;;;18.70;99.90;;;;;;5000724;28;20211;-95
2022/08/21 07:24:12;;;;;;;2.80;1.35;;;18.80;99.90;;;;;;5000507;28;20266;-95
2022/08/21 07:26:38;;;;;;;3.60;1.50;;;18.90;99.70;;;;;;4977242;28;20230;-92
2022/08/21 07:29:04;;;;;;;4.45;1.30;;;19.00;99.90;;;;;;4978486;28;20227;-93
2022/08/21 07:31:30;;;;;;;2.90;1.42;;;19.20;99.30;;;;;;4994936;28;20176;-92
2022/08/21 07:33:57;;;;;;;2.42;1.17;;;19.20;98.20;;;;;;4993661;28;20184;-93
2022/08/21 07:36:23;;;;;;;10.02;1.20;;;19.30;97.90;;;;;;4994001;28;20172;-95
2022/08/21 07:38:49;;;;;;;2.30;1.15;;;19.40;98.10;;;;;;4995538;28;20195;-95
2022/08/21 07:41:19;;;;;;;2.67;1.15;;;19.50;98.70;;;;;;4978362;28;20238;-95
2022/08/21 07:43:46;;;;;;;5.30;1.30;;;19.60;99.00;;;;;;4976407;28;20188;-93
2022/08/21 07:46:12;;;;;;;2.13;0.98;;;19.70;99.20;;;;;;4976104;28;20267;-93
2022/08/21 07:48:38;;;;;;;3.63;1.10;;;19.70;99.80;;;;;;4995929;28;20191;-93
2022/08/21 07:51:07;;;;;;;3.10;1.13;;;19.80;99.90;;;;;;4995255;28;20169;-94
2022/08/21 07:53:35;;;;;;;3.33;1.20;;;19.80;99.90;;;;;;4990651;28;20200;-92
2022/08/21 07:56:01;;;;;;;3.10;1.10;;;19.90;99.90;;;;;;4975871;28;20259;-90
2022/08/21 07:58:27;;;;;;;2.60;1.30;;;19.90;99.90;;;;;;4986890;28;20190;-96
2022/08/21 08:00:53;;;;;;;5.13;1.08;;;19.90;99.90;;;;;;4995588;28;20295;-91
2022/08/21 08:03:18;;;;;;;2.60;1.13;;;20.00;99.90;;;;;;4990392;28;20180;-96
2022/08/21 08:05:44;;;;;;;2.63;1.15;;;20.00;99.90;;;;;;4994942;28;20233;-93
2022/08/21 08:08:10;;;;;;;3.78;1.15;;;20.00;99.90;;;;;;4980953;28;20309;-90
2022/08/21 08:10:38;;;;;;;3.38;1.48;;;20.00;98.70;;;;;;4975388;28;20235;-91
2022/08/21 08:13:03;;;;;;;3.47;1.38;;;20.00;98.60;;;;;;4987082;28;20180;-92
2022/08/21 08:15:30;;;;;;;2.83;1.10;;;20.00;99.40;;;;;;4993671;28;20179;-95
2022/08/21 08:17:57;;;;;;;2.95;1.20;;;20.30;99.20;;;;;;5006041;28;20187;-94
2022/08/21 08:20:26;;;;;;;4.50;1.30;;;20.40;99.00;;;;;;5011001;28;20214;-92
2022/08/21 08:23:01;;;;;;;4.25;1.40;;;20.70;99.40;;;;;;5007245;28;20245;-95
2022/08/21 08:25:27;;;;;;;3.65;1.27;;;21.00;99.40;;;;;;5004027;28;20186;-92
2022/08/21 08:27:53;;;;;;;3.55;1.02;;;21.10;98.10;;;;;;5006659;28;20186;-93
2022/08/21 08:30:21;;;;;;;5.00;1.30;;;21.10;98.00;;;;;;5013884;28;20316;-94
2022/08/21 08:32:47;;;;;;;3.10;1.30;;;21.10;97.60;;;;;;5008868;28;20182;-94
2022/08/21 08:35:14;;;;;;;3.63;1.17;;;21.10;97.60;;;;;;4984580;28;20270;-94
2022/08/21 08:37:40;;;;;;;2.10;1.08;;;21.10;97.30;;;;;;4979073;28;20180;-96
2022/08/21 08:40:12;;;;;;;2.67;1.13;;;21.10;97.20;;;;;;5018698;28;20208;-90
2022/08/21 08:42:38;;;;;;;3.67;1.40;;;21.10;98.10;;;;;;5009227;28;20179;-90
2022/08/21 08:45:12;;;;;;;2.33;1.20;;;21.10;98.70;;;;;;4982166;28;20539;-91
2022/08/21 08:47:44;;;;;;;4.03;1.50;;;21.20;98.50;;;;;;5000159;28;20179;-94
2022/08/21 08:50:17;;;;;;;3.35;1.35;;;21.20;99.30;;;;;;4999676;28;20153;-93
2022/08/21 08:52:51;;;;;;;4.32;1.27;;;21.20;99.60;;;;;;5007044;28;20230;-92
2022/08/21 08:55:23;;;;;;;3.53;1.80;;;21.20;99.60;;;;;;4982516;28;20233;-92
2022/08/21 08:57:50;;;;;;;2.28;1.48;;;21.20;99.10;;;;;;4984735;28;20190;-94
2022/08/21 09:00:19;;;;;;;4.75;1.40;;;21.30;99.10;;;;;;4999412;28;20204;-93
2022/08/21 09:02:46;;;;;;;3.15;1.23;;;21.30;99.80;;;;;;4998951;28;20273;-92
2022/08/21 09:05:27;;;;;;;4.38;2.00;;;21.60;99.80;;;;;;5005540;28;20201;-94
2022/08/21 09:08:11;;;;;;;3.47;1.85;;;21.80;99.40;;;;;;4984977;28;20190;-94
2022/08/21 09:10:58;;;;;;;4.70;1.52;;;21.90;99.40;;;;;;5014413;28;20179;-94
2022/08/21 09:13:41;;;;;;;5.60;2.00;;;22.00;99.40;;;;;;4996967;28;20634;-96
2022/08/21 09:16:25;;;;;;;4.03;1.70;;;22.00;98.90;;;;;;4981396;28;20178;-93
2022/08/21 09:19:03;;;;;;;4.88;1.77;;;22.10;99.80;;;;;;4991535;28;20218;-92
2022/08/21 09:21:40;;;;;;;6.00;2.20;;;22.10;99.40;;;;;;4998161;28;20293;-94
2022/08/21 09:24:36;;;;;;;4.70;1.75;;;22.10;99.50;;;;;;4996276;28;20261;-92
2022/08/21 09:27:12;;;;;;;3.95;1.75;;;22.10;99.60;;;;;;4996356;28;20191;-92
2022/08/21 09:29:44;;;;;;;5.85;1.73;;;22.10;99.50;;;;;;4991361;28;20184;-91
2022/08/21 09:32:18;;;;;;;5.20;1.80;;;22.00;99.50;;;;;;4981721;28;20258;-93
2022/08/21 09:34:57;;;;;;;3.15;1.52;;;21.90;99.70;;;;;;4985272;28;20222;-90
2022/08/21 09:37:23;;;;;;;4.78;1.70;;;22.00;99.80;;;;;;4997769;28;20172;-88
2022/08/21 09:39:49;;;;;;;7.70;1.92;;;22.10;99.50;;;;;;4996350;28;20803;-92
2022/08/21 09:42:24;;;;;;;5.03;2.03;;;22.30;99.40;;;;;;4981592;28;20699;-93
2022/08/21 09:45:13;;;;;;;6.63;1.92;;;22.50;99.10;;;;;;4981387;28;20176;-95
2022/08/21 09:47:40;;;;;;;3.55;1.70;;;22.60;99.00;;;;;;4998191;28;20168;-93
2022/08/21 09:50:19;;;;;;;4.95;1.83;;;22.90;98.90;;;;;;5000834;28;20263;-91
2022/08/21 09:52:57;;;;;;;7.88;1.42;;;23.00;98.80;;;;;;4981916;28;20276;-95
2022/08/21 09:58:43;;;;;;;6.32;2.17;;;23.40;98.10;;;;;;5001683;28;20234;-94
2022/08/21 10:01:16;;;;;;;5.47;2.13;;;23.40;97.80;;;;;;4981822;28;20199;-93
2022/08/21 10:03:43;;;;;;;5.95;1.60;;;23.60;97.30;;;;;;4980912;28;20184;-94
2022/08/21 10:06:10;;;;;;;5.35;1.95;;;23.50;97.50;;;;;;4982242;28;20207;-92
2022/08/21 10:08:40;;;;;;;7.35;2.05;;;23.30;96.80;;;;;;4982212;28;20275;-95
2022/08/21 10:11:13;;;;;;;6.53;2.30;;;23.30;97.10;;;;;;5007706;28;20183;-94
2022/08/21 10:13:51;;;;;;;5.38;1.80;;;23.40;97.20;;;;;;5011521;28;20626;-96
2022/08/21 10:16:57;;;;;;;4.80;2.08;;;23.60;96.50;;;;;;5017509;28;20171;-96
2022/08/21 10:19:26;;;;;;;5.15;1.73;;;23.90;96.70;;;;;;4987542;28;20226;-93
2022/08/21 10:22:03;;;;;;;4.95;2.20;;;24.10;95.30;;;;;;5001425;28;20190;-94
2022/08/21 10:24:33;;;;;;;4.07;1.70;;;24.20;95.00;;;;;;4998666;28;20214;-89
2022/08/21 10:27:31;;;;;;;4.15;1.48;;;24.30;95.20;;;;;;4997730;28;20179;-92
2022/08/21 10:30:03;;;;;;;6.28;2.10;;;24.20;94.10;;;;;;4995698;28;20206;-90
2022/08/21 10:32:54;;;;;;;7.55;1.98;;;24.30;94.50;;;;;;5021241;28;20183;-96
2022/08/21 10:35:46;;;;;;;9.38;2.05;;;24.40;93.90;;;;;;4997931;28;20176;-91
2022/08/21 10:38:26;;;;;;;6.13;1.70;;;24.30;93.20;;;;;;5010441;28;20206;-93
2022/08/21 10:40:59;;;;;;;7.63;1.92;;;24.40;92.80;;;;;;5005118;28;20206;-92
2022/08/21 10:44:13;;;;;;;5.30;1.77;;;24.40;93.70;;;;;;5003442;28;20993;-93
2022/08/21 10:46:59;;;;;;;3.92;1.60;;;24.50;93.00;;;;;;5010534;28;20614;-95
2022/08/21 10:49:58;;;;;;;6.68;1.75;;;24.50;93.10;;;;;;4980324;28;20184;-92
2022/08/21 10:52:42;;;;;;;6.25;1.77;;;24.60;92.70;;;;;;4979790;28;20188;-90
2022/08/21 10:55:30;;;;;;;4.50;1.55;;;24.70;91.90;;;;;;4979826;28;20184;-93
2022/08/21 10:58:07;;;;;;;6.40;1.30;;;24.70;91.40;;;;;;4980358;28;20233;-92
2022/08/21 11:00:45;;;;;;;5.07;1.60;;;24.70;91.70;;;;;;4995030;28;20212;-92
2022/08/21 11:03:16;;;;;;;4.43;1.65;;;24.70;92.00;;;;;;4999417;28;20332;-94
2022/08/21 11:05:54;;;;;;;4.38;1.73;;;24.60;91.50;;;;;;4989941;28;20184;-92
2022/08/21 11:08:37;;;;;;;7.15;1.58;;;24.60;91.60;;;;;;4980857;28;20172;-94
2022/08/21 11:11:12;;;;;;;6.28;1.60;;;24.70;91.70;;;;;;4980879;28;20238;-93
2022/08/21 11:13:49;;;;;;;7.50;1.95;;;24.80;91.10;;;;;;4979833;28;20183;-94
2022/08/21 11:16:50;;;;;;;4.35;1.70;;;24.90;91.40;;;;;;4982494;28;20195;-93
2022/08/21 11:19:28;;;;;;;5.10;1.67;;;25.10;90.70;;;;;;5017120;28;20222;-95
2022/08/21 11:22:08;;;;;;;7.35;1.80;;;25.20;90.80;;;;;;4996043;28;20199;-96
2022/08/21 11:25:01;;;;;;;6.65;2.13;;;25.40;90.80;;;;;;4979396;28;20179;-93
2022/08/21 11:27:33;;;;;;;5.38;1.58;;;25.50;87.50;;;;;;4979776;28;20179;-93
2022/08/21 11:30:00;;;;;;;7.43;2.00;;;25.50;89.50;;;;;;4978936;28;20218;-91
2022/08/21 11:33:00;;;;;;;7.80;2.20;;;25.40;90.20;;;;;;5006814;28;20182;-91
2022/08/21 11:35:49;;;;;;;6.07;2.13;;;25.20;90.30;;;;;;5017923;28;20182;-91
2022/08/21 11:38:34;;;;;;;4.32;1.88;;;25.20;90.20;;;;;;5004552;28;20182;-90
2022/08/21 11:41:12;;;;;;;7.10;2.10;;;25.20;91.10;;;;;;5004706;28;20213;-93
2022/08/21 11:44:07;;;;;;;4.85;1.55;;;25.50;89.70;;;;;;5005409;28;20185;-96
2022/08/21 11:46:59;;;;;;;6.10;1.42;;;25.70;86.70;;;;;;5001722;28;20264;-91
2022/08/21 11:49:25;;;;;;;4.55;1.50;;;25.90;87.40;;;;;;5001215;28;20648;-92
2022/08/21 11:52:13;;;;;;;4.82;1.40;;;25.70;86.70;;;;;;5005343;28;20190;-93
2022/08/21 11:54:48;;;;;;;5.68;1.40;;;25.30;87.90;;;;;;5002811;28;20214;-90
2022/08/21 11:57:34;;;;;;;3.40;1.58;;;25.20;87.90;;;;;;4996237;28;20675;-92
2022/08/21 12:00:08;;;;;;;5.20;1.88;;;25.10;88.20;;;;;;5001526;28;20532;-93
2022/08/21 12:02:40;;;;;;;6.07;1.52;;;25.30;87.60;;;;;;4998491;28;20187;-94
2022/08/21 12:05:11;;;;;;;4.38;1.80;;;25.50;86.60;;;;;;4998067;28;20500;-92
2022/08/21 12:07:41;;;;;;;4.47;1.60;;;25.80;86.10;;;;;;5004044;28;20175;-93
2022/08/21 12:10:14;;;;;;;3.50;1.45;;;26.10;85.70;;;;;;5004326;28;20584;-95
2022/08/21 12:12:43;;;;;;;2.75;1.40;;;26.30;85.60;;;;;;5004262;28;20168;-94
2022/08/21 12:15:21;;;;;;;4.72;1.48;;;26.50;84.10;;;;;;5005848;28;20182;-94
2022/08/21 12:17:59;;;;;;;5.30;1.60;;;26.50;83.80;;;;;;5014283;28;20167;-93
2022/08/21 12:20:37;;;;;;;3.67;1.40;;;26.50;84.60;;;;;;5014499;28;20215;-93
2022/08/21 12:23:11;;;;;;;4.18;1.85;;;26.60;84.00;;;;;;5014908;28;20242;-93
2022/08/21 12:25:40;;;;;;;4.30;1.40;;;26.70;83.40;;;;;;5013785;28;20617;-93
2022/08/21 12:28:22;;;;;;;4.22;1.58;;;26.80;83.40;;;;;;5013813;28;20545;-96
2022/08/21 12:30:49;;;;;;;4.55;1.25;;;26.90;83.10;;;;;;5013273;28;20262;-95
2022/08/21 12:33:23;;;;;;;3.75;1.38;;;27.10;82.20;;;;;;5013829;28;20193;-93
2022/08/21 12:35:52;;;;;;;2.78;1.30;;;27.20;81.50;;;;;;5013028;28;20174;-95
2022/08/21 12:38:23;;;;;;;3.10;1.25;;;27.20;81.40;;;;;;5004271;28;20179;-91
2022/08/21 12:40:57;;;;;;;4.72;1.65;;;27.40;80.20;;;;;;4997030;28;20301;-92
2022/08/21 12:43:37;;;;;;;2.88;1.17;;;27.50;79.50;;;;;;4997343;28;20470;-89
2022/08/21 12:46:04;;;;;;;3.67;1.25;;;27.70;79.30;;;;;;5004721;28;20178;-92
2022/08/21 12:48:48;;;;;;;5.25;1.42;;;27.90;77.70;;;;;;5029006;28;20614;-89
2022/08/21 12:51:30;;;;;;;3.28;1.10;;;28.00;79.00;;;;;;4998216;28;20175;-93
2022/08/21 12:53:59;;;;;;;4.03;1.23;;;28.10;77.40;;;;;;4996977;28;20163;-93
2022/08/21 12:56:28;;;;;;;3.88;1.20;;;28.20;78.80;;;;;;4997104;28;20702;-93
2022/08/21 12:59:03;;;;;;;3.50;1.08;;;28.40;77.30;;;;;;4998059;28;20180;-93
2022/08/21 13:01:43;;;;;;;3.95;1.23;;;28.10;74.70;;;;;;4997270;28;20206;-92
2022/08/21 13:04:17;;;;;;;1.83;1.27;;;27.60;76.50;;;;;;4997192;28;20167;-91
2022/08/21 13:06:52;;;;;;;6.05;1.30;;;27.10;77.80;;;;;;5003073;28;20277;-91
2022/08/21 13:09:23;;;;;;;3.42;1.15;;;26.60;79.90;;;;;;5013273;28;20628;-90